sensor_id;sensor_type;location;lat;lon;timestamp;P1;durP1;ratioP1;P2;durP2;ratioP2
52798;SDS011;38667;42.872;74.622;2023-03-01T00:01:19;40.93;;;12.67;;
52798;SDS011;38667;42.872;74.622;2023-03-01T00:03:47;45.30;;;12.73;;
52798;SDS011;38667;42.872;74.622;2023-03-01T00:06:13;26.87;;;9.33;;
52798;SDS011;38667;42.872;74.622;2023-03-01T00:08:40;27.87;;;8.50;;
52798;SDS011;38667;42.872;74.622;2023-03-01T00:11:07;25.57;;;8.00;;
52798;SDS011;38667;42.872;74.622;2023-03-01T00:13:35;26.10;;;7.83;;
52798;SDS011;38667;42.872;74.622;2023-03-01T00:16:04;22.73;;;6.87;;
52798;SDS011;38667;42.872;74.622;2023-03-01T00:18:31;29.70;;;8.40;;
52798;SDS011;38667;42.872;74.622;2023-03-01T00:20:57;29.03;;;8.57;;
52798;SDS011;38667;42.872;74.622;2023-03-01T00:23:24;33.93;;;9.17;;
52798;SDS011;38667;42.872;74.622;2023-03-01T00:25:50;35.17;;;9.03;;
52798;SDS011;38667;42.872;74.622;2023-03-01T00:28:17;33.00;;;10.70;;
52798;SDS011;38667;42.872;74.622;2023-03-01T00:30:44;30.93;;;11.00;;
52798;SDS011;38667;42.872;74.622;2023-03-01T00:33:12;33.93;;;11.60;;
52798;SDS011;38667;42.872;74.622;2023-03-01T00:35:38;43.50;;;14.10;;
52798;SDS011;38667;42.872;74.622;2023-03-01T00:38:04;46.73;;;16.47;;
52798;SDS011;38667;42.872;74.622;2023-03-01T00:40:32;59.07;;;18.93;;
52798;SDS011;38667;42.872;74.622;2023-03-01T00:43:00;51.90;;;17.33;;
52798;SDS011;38667;42.872;74.622;2023-03-01T00:45:27;44.77;;;15.07;;
52798;SDS011;38667;42.872;74.622;2023-03-01T00:47:53;36.53;;;12.70;;
52798;SDS011;38667;42.872;74.622;2023-03-01T00:50:21;33.60;;;13.23;;
52798;SDS011;38667;42.872;74.622;2023-03-01T00:52:51;39.50;;;13.13;;
52798;SDS011;38667;42.872;74.622;2023-03-01T00:55:18;38.40;;;13.13;;
52798;SDS011;38667;42.872;74.622;2023-03-01T00:57:44;40.73;;;13.03;;
52798;SDS011;38667;42.872;74.622;2023-03-01T01:00:10;46.27;;;14.10;;
52798;SDS011;38667;42.872;74.622;2023-03-01T01:02:37;115.73;;;16.63;;
52798;SDS011;38667;42.872;74.622;2023-03-01T01:05:04;206.03;;;22.37;;
52798;SDS011;38667;42.872;74.622;2023-03-01T01:07:32;170.20;;;21.43;;
52798;SDS011;38667;42.872;74.622;2023-03-01T01:09:59;182.70;;;23.00;;
52798;SDS011;38667;42.872;74.622;2023-03-01T01:12:25;165.63;;;21.80;;
52798;SDS011;38667;42.872;74.622;2023-03-01T01:14:51;128.70;;;22.77;;
52798;SDS011;38667;42.872;74.622;2023-03-01T01:17:18;109.10;;;23.43;;
52798;SDS011;38667;42.872;74.622;2023-03-01T01:19:44;91.37;;;21.50;;
52798;SDS011;38667;42.872;74.622;2023-03-01T01:22:10;67.37;;;17.37;;
52798;SDS011;38667;42.872;74.622;2023-03-01T01:24:38;69.13;;;17.80;;
52798;SDS011;38667;42.872;74.622;2023-03-01T01:27:04;71.93;;;20.33;;
52798;SDS011;38667;42.872;74.622;2023-03-01T01:29:30;107.43;;;29.40;;
52798;SDS011;38667;42.872;74.622;2023-03-01T01:31:57;100.27;;;28.63;;
52798;SDS011;38667;42.872;74.622;2023-03-01T01:34:23;93.50;;;29.10;;
52798;SDS011;38667;42.872;74.622;2023-03-01T01:36:49;117.13;;;30.20;;
52798;SDS011;38667;42.872;74.622;2023-03-01T01:39:17;106.43;;;32.47;;
52798;SDS011;38667;42.872;74.622;2023-03-01T01:41:44;124.80;;;34.10;;
52798;SDS011;38667;42.872;74.622;2023-03-01T01:44:13;127.33;;;37.37;;
52798;SDS011;38667;42.872;74.622;2023-03-01T01:46:44;36.40;;;10.63;;
52798;SDS011;38667;42.872;74.622;2023-03-01T01:49:17;23.03;;;7.67;;
52798;SDS011;38667;42.872;74.622;2023-03-01T01:51:49;23.50;;;8.83;;
52798;SDS011;38667;42.872;74.622;2023-03-01T01:54:21;36.53;;;10.20;;
52798;SDS011;38667;42.872;74.622;2023-03-01T01:56:54;60.80;;;16.50;;
52798;SDS011;38667;42.872;74.622;2023-03-01T01:59:23;59.10;;;14.83;;
52798;SDS011;38667;42.872;74.622;2023-03-01T02:01:52;54.33;;;13.73;;
52798;SDS011;38667;42.872;74.622;2023-03-01T02:04:19;64.80;;;17.10;;
52798;SDS011;38667;42.872;74.622;2023-03-01T02:06:47;74.23;;;19.87;;
52798;SDS011;38667;42.872;74.622;2023-03-01T02:09:18;98.10;;;21.70;;
52798;SDS011;38667;42.872;74.622;2023-03-01T02:11:48;58.63;;;16.83;;
52798;SDS011;38667;42.872;74.622;2023-03-01T02:14:17;84.63;;;20.33;;
52798;SDS011;38667;42.872;74.622;2023-03-01T02:16:44;97.47;;;22.23;;
52798;SDS011;38667;42.872;74.622;2023-03-01T02:19:13;78.30;;;20.63;;
52798;SDS011;38667;42.872;74.622;2023-03-01T02:21:49;99.13;;;24.00;;
52798;SDS011;38667;42.872;74.622;2023-03-01T02:24:23;83.73;;;21.57;;
52798;SDS011;38667;42.872;74.622;2023-03-01T02:26:58;98.67;;;23.10;;
52798;SDS011;38667;42.872;74.622;2023-03-01T02:29:27;73.00;;;20.67;;
52798;SDS011;38667;42.872;74.622;2023-03-01T02:31:54;100.50;;;21.77;;
52798;SDS011;38667;42.872;74.622;2023-03-01T02:34:24;89.63;;;21.00;;
52798;SDS011;38667;42.872;74.622;2023-03-01T02:36:52;72.67;;;21.40;;
52798;SDS011;38667;42.872;74.622;2023-03-01T02:39:22;88.77;;;21.03;;
52798;SDS011;38667;42.872;74.622;2023-03-01T02:41:52;62.83;;;17.97;;
52798;SDS011;38667;42.872;74.622;2023-03-01T02:44:19;70.00;;;19.83;;
52798;SDS011;38667;42.872;74.622;2023-03-01T02:46:48;69.83;;;18.07;;
52798;SDS011;38667;42.872;74.622;2023-03-01T02:49:18;59.23;;;15.73;;
52798;SDS011;38667;42.872;74.622;2023-03-01T02:51:47;67.27;;;15.80;;
52798;SDS011;38667;42.872;74.622;2023-03-01T02:54:31;82.00;;;18.87;;
52798;SDS011;38667;42.872;74.622;2023-03-01T02:57:04;102.80;;;17.13;;
52798;SDS011;38667;42.872;74.622;2023-03-01T02:59:31;83.40;;;16.67;;
52798;SDS011;38667;42.872;74.622;2023-03-01T03:02:01;49.57;;;14.40;;
52798;SDS011;38667;42.872;74.622;2023-03-01T03:04:28;43.03;;;12.73;;
52798;SDS011;38667;42.872;74.622;2023-03-01T03:06:54;22.97;;;7.10;;
52798;SDS011;38667;42.872;74.622;2023-03-01T03:09:20;64.53;;;12.47;;
52798;SDS011;38667;42.872;74.622;2023-03-01T03:11:46;85.77;;;15.73;;
52798;SDS011;38667;42.872;74.622;2023-03-01T03:14:14;56.20;;;13.20;;
52798;SDS011;38667;42.872;74.622;2023-03-01T03:16:41;63.10;;;12.77;;
52798;SDS011;38667;42.872;74.622;2023-03-01T03:19:09;67.63;;;13.70;;
52798;SDS011;38667;42.872;74.622;2023-03-01T03:21:36;55.70;;;13.53;;
52798;SDS011;38667;42.872;74.622;2023-03-01T03:24:03;62.57;;;13.97;;
52798;SDS011;38667;42.872;74.622;2023-03-01T03:26:29;45.10;;;10.73;;
52798;SDS011;38667;42.872;74.622;2023-03-01T03:28:56;59.73;;;11.60;;
52798;SDS011;38667;42.872;74.622;2023-03-01T03:31:22;59.87;;;11.60;;
52798;SDS011;38667;42.872;74.622;2023-03-01T03:33:49;67.67;;;13.03;;
52798;SDS011;38667;42.872;74.622;2023-03-01T03:36:17;52.65;;;12.18;;
52798;SDS011;38667;42.872;74.622;2023-03-01T03:38:45;61.03;;;13.47;;
52798;SDS011;38667;42.872;74.622;2023-03-01T03:41:12;55.00;;;12.70;;
52798;SDS011;38667;42.872;74.622;2023-03-01T03:43:39;52.03;;;13.43;;
52798;SDS011;38667;42.872;74.622;2023-03-01T03:46:06;51.55;;;13.82;;
52798;SDS011;38667;42.872;74.622;2023-03-01T03:48:33;61.95;;;13.02;;
52798;SDS011;38667;42.872;74.622;2023-03-01T03:51:01;47.58;;;11.95;;
52798;SDS011;38667;42.872;74.622;2023-03-01T03:53:29;37.03;;;9.68;;
52798;SDS011;38667;42.872;74.622;2023-03-01T03:55:55;30.25;;;6.78;;
52798;SDS011;38667;42.872;74.622;2023-03-01T03:58:22;29.98;;;7.97;;
52798;SDS011;38667;42.872;74.622;2023-03-01T04:00:49;34.33;;;9.60;;
52798;SDS011;38667;42.872;74.622;2023-03-01T04:03:17;33.45;;;7.55;;
52798;SDS011;38667;42.872;74.622;2023-03-01T04:05:45;33.92;;;8.93;;
52798;SDS011;38667;42.872;74.622;2023-03-01T04:08:12;27.83;;;6.45;;
52798;SDS011;38667;42.872;74.622;2023-03-01T04:10:41;22.25;;;6.57;;
52798;SDS011;38667;42.872;74.622;2023-03-01T04:13:09;24.27;;;9.30;;
52798;SDS011;38667;42.872;74.622;2023-03-01T04:15:37;33.90;;;9.07;;
52798;SDS011;38667;42.872;74.622;2023-03-01T04:18:04;20.75;;;6.68;;
52798;SDS011;38667;42.872;74.622;2023-03-01T04:20:32;16.23;;;5.53;;
52798;SDS011;38667;42.872;74.622;2023-03-01T04:23:01;20.17;;;6.03;;
52798;SDS011;38667;42.872;74.622;2023-03-01T04:25:28;23.05;;;5.28;;
52798;SDS011;38667;42.872;74.622;2023-03-01T04:27:56;28.23;;;5.93;;
52798;SDS011;38667;42.872;74.622;2023-03-01T04:30:22;20.45;;;5.40;;
52798;SDS011;38667;42.872;74.622;2023-03-01T04:32:48;21.40;;;6.07;;
52798;SDS011;38667;42.872;74.622;2023-03-01T04:35:15;36.38;;;5.93;;
52798;SDS011;38667;42.872;74.622;2023-03-01T04:37:41;17.70;;;5.45;;
52798;SDS011;38667;42.872;74.622;2023-03-01T04:40:08;20.70;;;4.68;;
52798;SDS011;38667;42.872;74.622;2023-03-01T04:42:35;25.38;;;7.43;;
52798;SDS011;38667;42.872;74.622;2023-03-01T04:45:03;36.20;;;9.13;;
52798;SDS011;38667;42.872;74.622;2023-03-01T04:47:30;26.30;;;6.22;;
52798;SDS011;38667;42.872;74.622;2023-03-01T04:49:57;22.13;;;6.63;;
52798;SDS011;38667;42.872;74.622;2023-03-01T04:52:23;25.10;;;6.70;;
52798;SDS011;38667;42.872;74.622;2023-03-01T04:54:49;39.03;;;7.40;;
52798;SDS011;38667;42.872;74.622;2023-03-01T04:57:15;25.48;;;7.53;;
52798;SDS011;38667;42.872;74.622;2023-03-01T04:59:42;21.33;;;5.75;;
52798;SDS011;38667;42.872;74.622;2023-03-01T05:02:10;26.02;;;4.93;;
52798;SDS011;38667;42.872;74.622;2023-03-01T05:04:36;20.73;;;4.68;;
52798;SDS011;38667;42.872;74.622;2023-03-01T05:07:02;18.73;;;4.32;;
52798;SDS011;38667;42.872;74.622;2023-03-01T05:09:28;11.88;;;4.65;;
52798;SDS011;38667;42.872;74.622;2023-03-01T05:11:55;21.02;;;4.07;;
52798;SDS011;38667;42.872;74.622;2023-03-01T05:14:21;23.25;;;3.92;;
52798;SDS011;38667;42.872;74.622;2023-03-01T05:16:47;21.17;;;5.65;;
52798;SDS011;38667;42.872;74.622;2023-03-01T05:19:15;23.50;;;5.93;;
52798;SDS011;38667;42.872;74.622;2023-03-01T05:21:42;20.13;;;6.05;;
52798;SDS011;38667;42.872;74.622;2023-03-01T05:24:08;19.00;;;4.45;;
52798;SDS011;38667;42.872;74.622;2023-03-01T05:26:34;16.38;;;5.43;;
52798;SDS011;38667;42.872;74.622;2023-03-01T05:29:01;29.42;;;7.43;;
52798;SDS011;38667;42.872;74.622;2023-03-01T05:31:27;27.40;;;6.30;;
52798;SDS011;38667;42.872;74.622;2023-03-01T05:33:53;12.40;;;3.13;;
52798;SDS011;38667;42.872;74.622;2023-03-01T05:36:21;16.98;;;3.78;;
52798;SDS011;38667;42.872;74.622;2023-03-01T05:38:48;20.90;;;4.78;;
52798;SDS011;38667;42.872;74.622;2023-03-01T05:41:14;19.80;;;4.47;;
52798;SDS011;38667;42.872;74.622;2023-03-01T05:43:41;13.38;;;3.75;;
52798;SDS011;38667;42.872;74.622;2023-03-01T05:46:07;18.35;;;3.67;;
52798;SDS011;38667;42.872;74.622;2023-03-01T05:48:33;30.20;;;4.25;;
52798;SDS011;38667;42.872;74.622;2023-03-01T05:51:00;15.90;;;3.30;;
52798;SDS011;38667;42.872;74.622;2023-03-01T05:53:28;20.05;;;4.35;;
52798;SDS011;38667;42.872;74.622;2023-03-01T05:55:54;23.88;;;5.50;;
52798;SDS011;38667;42.872;74.622;2023-03-01T05:58:21;13.48;;;4.60;;
52798;SDS011;38667;42.872;74.622;2023-03-01T06:00:47;11.00;;;4.18;;
52798;SDS011;38667;42.872;74.622;2023-03-01T06:03:14;12.10;;;3.08;;
52798;SDS011;38667;42.872;74.622;2023-03-01T06:05:42;10.30;;;2.70;;
52798;SDS011;38667;42.872;74.622;2023-03-01T06:08:09;13.50;;;3.13;;
52798;SDS011;38667;42.872;74.622;2023-03-01T06:10:38;14.68;;;3.72;;
52798;SDS011;38667;42.872;74.622;2023-03-01T06:13:04;9.00;;;2.33;;
52798;SDS011;38667;42.872;74.622;2023-03-01T06:15:31;26.00;;;3.92;;
52798;SDS011;38667;42.872;74.622;2023-03-01T06:17:57;10.25;;;3.50;;
52798;SDS011;38667;42.872;74.622;2023-03-01T06:20:24;12.77;;;3.03;;
52798;SDS011;38667;42.872;74.622;2023-03-01T06:22:51;9.27;;;2.92;;
52798;SDS011;38667;42.872;74.622;2023-03-01T06:25:18;24.48;;;5.55;;
52798;SDS011;38667;42.872;74.622;2023-03-01T06:27:47;11.02;;;3.33;;
52798;SDS011;38667;42.872;74.622;2023-03-01T06:30:15;11.63;;;3.35;;
52798;SDS011;38667;42.872;74.622;2023-03-01T06:32:43;10.85;;;3.83;;
52798;SDS011;38667;42.872;74.622;2023-03-01T06:35:09;15.45;;;3.78;;
52798;SDS011;38667;42.872;74.622;2023-03-01T06:37:37;15.77;;;3.70;;
52798;SDS011;38667;42.872;74.622;2023-03-01T06:40:04;25.92;;;6.82;;
52798;SDS011;38667;42.872;74.622;2023-03-01T06:42:31;25.38;;;5.43;;
52798;SDS011;38667;42.872;74.622;2023-03-01T06:44:59;19.23;;;3.33;;
52798;SDS011;38667;42.872;74.622;2023-03-01T06:47:26;9.85;;;2.63;;
52798;SDS011;38667;42.872;74.622;2023-03-01T06:49:52;8.32;;;2.22;;
52798;SDS011;38667;42.872;74.622;2023-03-01T06:52:18;10.27;;;2.50;;
52798;SDS011;38667;42.872;74.622;2023-03-01T06:54:44;8.25;;;3.15;;
52798;SDS011;38667;42.872;74.622;2023-03-01T06:57:11;6.07;;;2.22;;
52798;SDS011;38667;42.872;74.622;2023-03-01T06:59:37;9.40;;;2.35;;
52798;SDS011;38667;42.872;74.622;2023-03-01T07:02:05;14.02;;;3.78;;
52798;SDS011;38667;42.872;74.622;2023-03-01T07:04:31;19.55;;;3.83;;
52798;SDS011;38667;42.872;74.622;2023-03-01T07:06:58;12.57;;;3.10;;
52798;SDS011;38667;42.872;74.622;2023-03-01T07:09:24;17.55;;;3.25;;
52798;SDS011;38667;42.872;74.622;2023-03-01T07:11:50;12.63;;;2.25;;
52798;SDS011;38667;42.872;74.622;2023-03-01T07:14:17;7.13;;;1.65;;
52798;SDS011;38667;42.872;74.622;2023-03-01T07:16:43;11.65;;;2.20;;
52798;SDS011;38667;42.872;74.622;2023-03-01T07:19:11;38.08;;;3.95;;
52798;SDS011;38667;42.872;74.622;2023-03-01T07:21:38;15.10;;;2.47;;
52798;SDS011;38667;42.872;74.622;2023-03-01T07:24:05;6.53;;;2.20;;
52798;SDS011;38667;42.872;74.622;2023-03-01T07:26:32;18.13;;;2.90;;
52798;SDS011;38667;42.872;74.622;2023-03-01T07:28:59;9.52;;;2.00;;
52798;SDS011;38667;42.872;74.622;2023-03-01T07:31:26;5.88;;;2.20;;
52798;SDS011;38667;42.872;74.622;2023-03-01T07:33:52;9.07;;;2.30;;
52798;SDS011;38667;42.872;74.622;2023-03-01T07:36:22;12.25;;;2.60;;
52798;SDS011;38667;42.872;74.622;2023-03-01T07:38:49;15.23;;;3.08;;
52798;SDS011;38667;42.872;74.622;2023-03-01T07:41:15;12.70;;;2.33;;
52798;SDS011;38667;42.872;74.622;2023-03-01T07:43:41;18.77;;;3.05;;
52798;SDS011;38667;42.872;74.622;2023-03-01T07:46:08;7.72;;;2.40;;
52798;SDS011;38667;42.872;74.622;2023-03-01T07:48:34;11.80;;;3.47;;
52798;SDS011;38667;42.872;74.622;2023-03-01T07:51:01;26.58;;;3.65;;
52798;SDS011;38667;42.872;74.622;2023-03-01T07:53:30;11.25;;;3.20;;
52798;SDS011;38667;42.872;74.622;2023-03-01T07:56:00;40.92;;;11.93;;
52798;SDS011;38667;42.872;74.622;2023-03-01T07:58:27;33.85;;;15.63;;
52798;SDS011;38667;42.872;74.622;2023-03-01T08:00:54;51.00;;;20.67;;
52798;SDS011;38667;42.872;74.622;2023-03-01T08:03:20;52.70;;;18.75;;
52798;SDS011;38667;42.872;74.622;2023-03-01T08:05:46;35.83;;;16.63;;
52798;SDS011;38667;42.872;74.622;2023-03-01T08:08:12;48.63;;;16.83;;
52798;SDS011;38667;42.872;74.622;2023-03-01T08:10:40;41.85;;;15.52;;
52798;SDS011;38667;42.872;74.622;2023-03-01T08:13:07;43.08;;;15.93;;
52798;SDS011;38667;42.872;74.622;2023-03-01T08:15:33;39.72;;;16.55;;
52798;SDS011;38667;42.872;74.622;2023-03-01T08:17:59;34.28;;;16.35;;
52798;SDS011;38667;42.872;74.622;2023-03-01T08:20:25;38.42;;;16.88;;
52798;SDS011;38667;42.872;74.622;2023-03-01T08:22:52;35.85;;;15.77;;
52798;SDS011;38667;42.872;74.622;2023-03-01T08:25:18;34.08;;;16.42;;
52798;SDS011;38667;42.872;74.622;2023-03-01T08:27:46;33.47;;;15.98;;
52798;SDS011;38667;42.872;74.622;2023-03-01T08:30:12;39.63;;;16.60;;
52798;SDS011;38667;42.872;74.622;2023-03-01T08:32:39;41.45;;;16.80;;
52798;SDS011;38667;42.872;74.622;2023-03-01T08:35:06;39.38;;;16.10;;
52798;SDS011;38667;42.872;74.622;2023-03-01T08:37:33;44.22;;;16.73;;
52798;SDS011;38667;42.872;74.622;2023-03-01T08:39:59;37.30;;;16.65;;
52798;SDS011;38667;42.872;74.622;2023-03-01T08:42:25;36.92;;;16.45;;
52798;SDS011;38667;42.872;74.622;2023-03-01T08:44:54;39.90;;;14.60;;
52798;SDS011;38667;42.872;74.622;2023-03-01T08:47:20;42.30;;;15.75;;
52798;SDS011;38667;42.872;74.622;2023-03-01T08:49:46;42.28;;;15.60;;
52798;SDS011;38667;42.872;74.622;2023-03-01T08:52:14;47.75;;;15.45;;
52798;SDS011;38667;42.872;74.622;2023-03-01T08:54:40;38.00;;;16.25;;
52798;SDS011;38667;42.872;74.622;2023-03-01T08:57:07;28.08;;;14.80;;
52798;SDS011;38667;42.872;74.622;2023-03-01T08:59:33;45.05;;;14.63;;
52798;SDS011;38667;42.872;74.622;2023-03-01T09:02:01;42.28;;;14.63;;
52798;SDS011;38667;42.872;74.622;2023-03-01T09:04:27;32.17;;;14.27;;
52798;SDS011;38667;42.872;74.622;2023-03-01T09:06:53;29.02;;;13.35;;
52798;SDS011;38667;42.872;74.622;2023-03-01T09:09:20;41.13;;;14.00;;
52798;SDS011;38667;42.872;74.622;2023-03-01T09:11:46;44.03;;;13.23;;
52798;SDS011;38667;42.872;74.622;2023-03-01T09:14:13;28.90;;;13.45;;
52798;SDS011;38667;42.872;74.622;2023-03-01T09:16:39;34.78;;;12.52;;
52798;SDS011;38667;42.872;74.622;2023-03-01T09:19:07;36.92;;;13.40;;
52798;SDS011;38667;42.872;74.622;2023-03-01T09:21:33;31.52;;;12.45;;
52798;SDS011;38667;42.872;74.622;2023-03-01T09:24:00;28.70;;;12.95;;
52798;SDS011;38667;42.872;74.622;2023-03-01T09:26:26;31.45;;;12.95;;
52798;SDS011;38667;42.872;74.622;2023-03-01T09:28:53;34.33;;;12.95;;
52798;SDS011;38667;42.872;74.622;2023-03-01T09:31:21;24.20;;;12.02;;
52798;SDS011;38667;42.872;74.622;2023-03-01T09:33:50;27.23;;;12.80;;
52798;SDS011;38667;42.872;74.622;2023-03-01T09:36:20;29.70;;;12.55;;
52798;SDS011;38667;42.872;74.622;2023-03-01T09:38:48;41.72;;;13.07;;
52798;SDS011;38667;42.872;74.622;2023-03-01T09:41:18;39.92;;;12.77;;
52798;SDS011;38667;42.872;74.622;2023-03-01T09:43:59;45.97;;;13.43;;
52798;SDS011;38667;42.872;74.622;2023-03-01T09:46:37;37.50;;;13.27;;
52798;SDS011;38667;42.872;74.622;2023-03-01T09:49:09;42.45;;;14.98;;
52798;SDS011;38667;42.872;74.622;2023-03-01T09:51:41;36.33;;;12.65;;
52798;SDS011;38667;42.872;74.622;2023-03-01T09:54:09;35.45;;;12.48;;
52798;SDS011;38667;42.872;74.622;2023-03-01T09:56:37;30.92;;;11.65;;
52798;SDS011;38667;42.872;74.622;2023-03-01T09:59:08;28.75;;;11.45;;
52798;SDS011;38667;42.872;74.622;2023-03-01T10:01:44;35.97;;;11.35;;
52798;SDS011;38667;42.872;74.622;2023-03-01T10:04:26;31.08;;;11.32;;
52798;SDS011;38667;42.872;74.622;2023-03-01T10:09:46;28.92;;;11.30;;
52798;SDS011;38667;42.872;74.622;2023-03-01T10:12:14;23.90;;;10.93;;
52798;SDS011;38667;42.872;74.622;2023-03-01T10:14:44;40.47;;;10.68;;
52798;SDS011;38667;42.872;74.622;2023-03-01T10:17:19;29.98;;;10.13;;
52798;SDS011;38667;42.872;74.622;2023-03-01T10:19:50;28.42;;;10.18;;
52798;SDS011;38667;42.872;74.622;2023-03-01T10:22:19;32.78;;;9.90;;
52798;SDS011;38667;42.872;74.622;2023-03-01T10:24:46;29.02;;;9.88;;
52798;SDS011;38667;42.872;74.622;2023-03-01T10:27:14;20.40;;;9.23;;
52798;SDS011;38667;42.872;74.622;2023-03-01T10:29:46;27.17;;;9.98;;
52798;SDS011;38667;42.872;74.622;2023-03-01T10:32:20;32.90;;;9.32;;
52798;SDS011;38667;42.872;74.622;2023-03-01T10:34:47;20.95;;;8.93;;
52798;SDS011;38667;42.872;74.622;2023-03-01T10:37:14;27.42;;;9.18;;
52798;SDS011;38667;42.872;74.622;2023-03-01T10:39:55;27.38;;;9.15;;
52798;SDS011;38667;42.872;74.622;2023-03-01T10:42:26;22.42;;;8.45;;
52798;SDS011;38667;42.872;74.622;2023-03-01T10:44:54;25.65;;;7.88;;
52798;SDS011;38667;42.872;74.622;2023-03-01T10:47:20;28.63;;;7.93;;
52798;SDS011;38667;42.872;74.622;2023-03-01T10:49:56;21.42;;;7.22;;
52798;SDS011;38667;42.872;74.622;2023-03-01T10:52:24;24.45;;;7.60;;
52798;SDS011;38667;42.872;74.622;2023-03-01T10:55:01;20.33;;;7.68;;
52798;SDS011;38667;42.872;74.622;2023-03-01T10:57:31;22.77;;;7.25;;
52798;SDS011;38667;42.872;74.622;2023-03-01T11:00:13;24.15;;;7.70;;
52798;SDS011;38667;42.872;74.622;2023-03-01T11:02:46;22.50;;;8.48;;
52798;SDS011;38667;42.872;74.622;2023-03-01T11:05:17;23.70;;;9.43;;
52798;SDS011;38667;42.872;74.622;2023-03-01T11:07:47;25.00;;;10.05;;
52798;SDS011;38667;42.872;74.622;2023-03-01T11:10:17;25.33;;;10.13;;
52798;SDS011;38667;42.872;74.622;2023-03-01T11:12:45;28.70;;;9.32;;
52798;SDS011;38667;42.872;74.622;2023-03-01T11:15:19;21.85;;;8.10;;
52798;SDS011;38667;42.872;74.622;2023-03-01T11:17:50;27.75;;;10.13;;
52798;SDS011;38667;42.872;74.622;2023-03-01T11:20:20;18.25;;;8.48;;
52798;SDS011;38667;42.872;74.622;2023-03-01T11:22:52;20.23;;;7.80;;
52798;SDS011;38667;42.872;74.622;2023-03-01T11:25:22;34.40;;;7.88;;
52798;SDS011;38667;42.872;74.622;2023-03-01T11:27:51;23.85;;;7.43;;
52798;SDS011;38667;42.872;74.622;2023-03-01T11:30:19;18.33;;;6.80;;
52798;SDS011;38667;42.872;74.622;2023-03-01T11:32:50;32.10;;;7.60;;
52798;SDS011;38667;42.872;74.622;2023-03-01T11:35:25;17.70;;;5.88;;
52798;SDS011;38667;42.872;74.622;2023-03-01T11:37:56;19.92;;;5.60;;
52798;SDS011;38667;42.872;74.622;2023-03-01T11:40:32;18.92;;;5.72;;
52798;SDS011;38667;42.872;74.622;2023-03-01T11:43:09;16.98;;;5.57;;
52798;SDS011;38667;42.872;74.622;2023-03-01T11:45:45;17.27;;;5.55;;
52798;SDS011;38667;42.872;74.622;2023-03-01T11:51:12;19.50;;;6.15;;
52798;SDS011;38667;42.872;74.622;2023-03-01T11:53:59;18.55;;;6.70;;
52798;SDS011;38667;42.872;74.622;2023-03-01T11:56:34;17.45;;;6.28;;
52798;SDS011;38667;42.872;74.622;2023-03-01T11:59:12;24.88;;;7.07;;
52798;SDS011;38667;42.872;74.622;2023-03-01T12:02:01;32.35;;;7.30;;
52798;SDS011;38667;42.872;74.622;2023-03-01T12:04:53;27.77;;;7.53;;
52798;SDS011;38667;42.872;74.622;2023-03-01T12:07:29;25.05;;;7.47;;
52798;SDS011;38667;42.872;74.622;2023-03-01T12:10:15;20.10;;;7.53;;
52798;SDS011;38667;42.872;74.622;2023-03-01T12:12:56;20.40;;;7.28;;
52798;SDS011;38667;42.872;74.622;2023-03-01T12:15:50;27.77;;;6.82;;
52798;SDS011;38667;42.872;74.622;2023-03-01T12:18:37;22.85;;;7.60;;
52798;SDS011;38667;42.872;74.622;2023-03-01T12:21:19;28.98;;;7.97;;
52798;SDS011;38667;42.872;74.622;2023-03-01T12:24:14;26.85;;;8.00;;
52798;SDS011;38667;42.872;74.622;2023-03-01T12:27:03;32.08;;;9.85;;
52798;SDS011;38667;42.872;74.622;2023-03-01T12:29:40;29.05;;;9.25;;
52798;SDS011;38667;42.872;74.622;2023-03-01T12:32:16;27.23;;;7.70;;
52798;SDS011;38667;42.872;74.622;2023-03-01T12:37:54;26.88;;;7.97;;
52798;SDS011;38667;42.872;74.622;2023-03-01T12:40:38;28.25;;;8.80;;
52798;SDS011;38667;42.872;74.622;2023-03-01T12:43:30;28.33;;;10.13;;
52798;SDS011;38667;42.872;74.622;2023-03-01T12:46:13;36.72;;;10.18;;
52798;SDS011;38667;42.872;74.622;2023-03-01T12:48:47;24.23;;;9.48;;
52798;SDS011;38667;42.872;74.622;2023-03-01T12:51:23;31.90;;;10.82;;
52798;SDS011;38667;42.872;74.622;2023-03-01T12:53:52;44.90;;;11.90;;
52798;SDS011;38667;42.872;74.622;2023-03-01T12:56:21;37.80;;;12.18;;
52798;SDS011;38667;42.872;74.622;2023-03-01T12:58:51;35.67;;;12.05;;
52798;SDS011;38667;42.872;74.622;2023-03-01T13:01:30;37.05;;;14.00;;
52798;SDS011;38667;42.872;74.622;2023-03-01T13:04:12;36.17;;;14.40;;
52798;SDS011;38667;42.872;74.622;2023-03-01T13:06:48;36.20;;;14.23;;
52798;SDS011;38667;42.872;74.622;2023-03-01T13:09:23;39.67;;;15.35;;
52798;SDS011;38667;42.872;74.622;2023-03-01T13:11:55;38.88;;;15.57;;
52798;SDS011;38667;42.872;74.622;2023-03-01T13:14:43;63.13;;;16.98;;
52798;SDS011;38667;42.872;74.622;2023-03-01T13:17:32;52.13;;;15.82;;
52798;SDS011;38667;42.872;74.622;2023-03-01T13:20:11;46.25;;;16.15;;
52798;SDS011;38667;42.872;74.622;2023-03-01T13:22:39;45.28;;;17.40;;
52798;SDS011;38667;42.872;74.622;2023-03-01T13:25:13;44.42;;;15.80;;
52798;SDS011;38667;42.872;74.622;2023-03-01T13:27:42;35.10;;;13.63;;
52798;SDS011;38667;42.872;74.622;2023-03-01T13:36:07;27.90;;;10.75;;
52798;SDS011;38667;42.872;74.622;2023-03-01T13:38:38;30.65;;;10.05;;
52798;SDS011;38667;42.872;74.622;2023-03-01T13:41:10;28.00;;;10.02;;
52798;SDS011;38667;42.872;74.622;2023-03-01T13:43:37;39.67;;;12.00;;
52798;SDS011;38667;42.872;74.622;2023-03-01T13:46:16;31.05;;;12.35;;
52798;SDS011;38667;42.872;74.622;2023-03-01T13:48:47;27.15;;;10.70;;
52798;SDS011;38667;42.872;74.622;2023-03-01T13:51:20;42.03;;;11.80;;
52798;SDS011;38667;42.872;74.622;2023-03-01T13:53:48;36.55;;;11.50;;
52798;SDS011;38667;42.872;74.622;2023-03-01T13:56:15;38.15;;;15.38;;
52798;SDS011;38667;42.872;74.622;2023-03-01T13:58:49;57.05;;;19.75;;
52798;SDS011;38667;42.872;74.622;2023-03-01T14:01:21;57.88;;;21.88;;
52798;SDS011;38667;42.872;74.622;2023-03-01T14:03:51;57.05;;;20.52;;
52798;SDS011;38667;42.872;74.622;2023-03-01T14:06:19;53.58;;;21.23;;
52798;SDS011;38667;42.872;74.622;2023-03-01T14:08:48;106.90;;;35.55;;
52798;SDS011;38667;42.872;74.622;2023-03-01T14:14:17;66.50;;;25.35;;
52798;SDS011;38667;42.872;74.622;2023-03-01T14:17:25;82.07;;;29.90;;
52798;SDS011;38667;42.872;74.622;2023-03-01T14:20:00;78.93;;;29.38;;
52798;SDS011;38667;42.872;74.622;2023-03-01T14:22:34;70.18;;;29.02;;
52798;SDS011;38667;42.872;74.622;2023-03-01T14:25:01;72.15;;;28.38;;
52798;SDS011;38667;42.872;74.622;2023-03-01T14:27:33;56.97;;;26.17;;
52798;SDS011;38667;42.872;74.622;2023-03-01T14:30:02;70.78;;;23.80;;
52798;SDS011;38667;42.872;74.622;2023-03-01T14:32:35;62.33;;;22.90;;
52798;SDS011;38667;42.872;74.622;2023-03-01T14:35:16;48.28;;;20.27;;
52798;SDS011;38667;42.872;74.622;2023-03-01T14:37:45;51.58;;;19.92;;
52798;SDS011;38667;42.872;74.622;2023-03-01T14:40:19;45.65;;;18.13;;
52798;SDS011;38667;42.872;74.622;2023-03-01T14:42:47;57.40;;;16.83;;
52798;SDS011;38667;42.872;74.622;2023-03-01T14:45:14;51.40;;;18.35;;